Time;durP1;ratioP1;P1;durP2;ratioP2;P2;SDS_P1;SDS_P2;PMS_P1;PMS_P2;Temp;Humidity;BMP_temperature;BMP_pressure;BME280_temperature;BME280_humidity;BME280_pressure;Samples;Min_cycle;Max_cycle;Signal;HPM_P1;HPM_P2
2023/01/09 00:02:09;;;;;;;3.50;0.90;;;7.50;99.90;;;;;;5053697;28;20048;-84
2023/01/09 00:04:35;;;;;;;1.27;0.68;;;7.50;99.90;;;;;;5053232;28;20025;-84
2023/01/09 00:07:01;;;;;;;1.80;0.70;;;7.40;99.90;;;;;;5053475;28;20021;-83
2023/01/09 00:09:26;;;;;;;1.75;0.50;;;7.40;99.90;;;;;;5058373;28;20029;-83
2023/01/09 00:11:53;;;;;;;2.10;0.60;;;7.40;99.90;;;;;;5048423;28;20033;-83
2023/01/09 00:14:21;;;;;;;1.58;0.60;;;7.40;99.90;;;;;;5033945;28;20017;-83
2023/01/09 00:16:47;;;;;;;1.30;0.65;;;7.40;99.90;;;;;;5033818;28;20021;-84
2023/01/09 00:19:12;;;;;;;1.45;0.60;;;7.30;99.90;;;;;;5033884;28;20024;-84
2023/01/09 00:21:38;;;;;;;1.75;0.50;;;7.30;99.90;;;;;;5033769;28;20502;-83
2023/01/09 00:24:04;;;;;;;2.10;0.40;;;7.20;99.90;;;;;;5033697;28;20383;-83
2023/01/09 00:26:30;;;;;;;0.82;0.40;;;7.20;99.90;;;;;;5015889;28;20109;-83
2023/01/09 00:28:56;;;;;;;0.95;0.50;;;7.10;99.90;;;;;;5033490;28;20109;-84
2023/01/09 00:31:21;;;;;;;2.25;0.52;;;7.10;99.90;;;;;;5033544;28;20043;-83
2023/01/09 00:33:53;;;;;;;0.95;0.40;;;7.10;99.90;;;;;;5015728;28;20049;-81
2023/01/09 00:36:18;;;;;;;1.63;0.50;;;7.00;99.90;;;;;;5033396;28;20112;-82
2023/01/09 00:38:44;;;;;;;0.85;0.50;;;7.00;99.90;;;;;;5033804;28;20026;-83
2023/01/09 00:41:14;;;;;;;0.57;0.30;;;6.90;99.90;;;;;;5015619;28;20061;-83
2023/01/09 00:43:45;;;;;;;0.82;0.30;;;6.90;99.90;;;;;;5033788;28;20056;-83
2023/01/09 00:46:13;;;;;;;1.00;0.60;;;6.80;99.90;;;;;;5033109;28;20117;-82
2023/01/09 00:48:43;;;;;;;0.85;0.65;;;6.80;99.90;;;;;;5033160;28;20036;-83
2023/01/09 00:51:08;;;;;;;1.35;0.40;;;6.70;99.90;;;;;;5033222;28;20363;-84
2023/01/09 00:53:37;;;;;;;0.73;0.40;;;6.70;99.90;;;;;;5033133;28;20030;-83
2023/01/09 00:56:07;;;;;;;2.65;0.60;;;6.60;99.90;;;;;;5033128;28;20029;-82
2023/01/09 00:58:33;;;;;;;2.75;0.50;;;6.60;99.90;;;;;;5033008;28;20111;-82
2023/01/09 01:01:00;;;;;;;1.77;0.32;;;6.60;99.90;;;;;;5033000;28;20493;-83
2023/01/09 01:03:26;;;;;;;0.63;0.40;;;6.50;99.90;;;;;;5032720;28;20033;-84
2023/01/09 01:08:36;;;;;;;0.60;0.40;;;6.40;99.90;;;;;;5033413;28;20056;-83
2023/01/09 01:11:08;;;;;;;0.63;0.30;;;6.40;99.90;;;;;;5041218;28;20033;-83
2023/01/09 01:13:35;;;;;;;1.45;0.50;;;6.30;99.90;;;;;;5051266;28;20024;-84
2023/01/09 01:16:04;;;;;;;1.13;0.50;;;6.30;99.90;;;;;;5048660;28;20032;-83
2023/01/09 01:18:29;;;;;;;1.63;0.65;;;6.20;99.90;;;;;;5052222;28;20029;-84
2023/01/09 01:20:55;;;;;;;0.75;0.40;;;6.20;99.90;;;;;;5052457;28;20036;-84
2023/01/09 01:23:21;;;;;;;1.17;0.50;;;6.10;99.90;;;;;;5034414;28;20036;-84
2023/01/09 01:25:46;;;;;;;0.75;0.47;;;6.10;99.90;;;;;;5052380;28;20025;-82
2023/01/09 01:28:12;;;;;;;1.35;0.50;;;6.10;99.90;;;;;;5052273;28;20026;-83
2023/01/09 01:30:39;;;;;;;0.88;0.50;;;6.10;99.90;;;;;;5052352;28;20025;-82
2023/01/09 01:33:05;;;;;;;2.90;0.60;;;6.00;99.90;;;;;;5052269;28;20032;-83
2023/01/09 01:35:30;;;;;;;2.63;1.02;;;6.00;99.90;;;;;;5052034;28;20025;-84
2023/01/09 01:37:56;;;;;;;2.58;0.77;;;6.00;99.90;;;;;;5052450;28;20068;-83
2023/01/09 01:40:21;;;;;;;1.70;0.70;;;6.00;99.90;;;;;;5052187;28;20033;-83
2023/01/09 01:42:49;;;;;;;1.55;0.77;;;6.00;99.90;;;;;;5052080;28;20601;-83
2023/01/09 01:45:21;;;;;;;2.08;0.90;;;5.90;99.90;;;;;;5052174;28;20024;-83
2023/01/09 01:48:00;;;;;;;1.77;0.90;;;6.00;99.90;;;;;;5052160;28;20032;-83
2023/01/09 01:50:44;;;;;;;2.80;1.10;;;6.00;99.90;;;;;;5052096;28;20055;-83
2023/01/09 01:53:09;;;;;;;;;;;6.00;99.90;;;;;;5034598;28;20378;-84
2023/01/09 01:55:58;;;;;;;1.85;1.20;;;6.00;99.90;;;;;;5034141;28;19999;-82
2023/01/09 01:58:26;;;;;;;4.65;1.00;;;5.90;99.90;;;;;;5034284;28;20060;-83
2023/01/09 02:00:51;;;;;;;2.95;1.30;;;5.90;99.90;;;;;;5052079;28;20025;-83
2023/01/09 02:03:19;;;;;;;3.08;0.90;;;5.90;99.90;;;;;;5051882;28;20036;-84
2023/01/09 02:05:44;;;;;;;2.20;1.10;;;5.90;99.90;;;;;;5051791;28;20063;-83
2023/01/09 02:08:11;;;;;;;2.25;1.33;;;5.90;99.90;;;;;;5052142;28;20033;-82
2023/01/09 02:10:37;;;;;;;3.10;1.00;;;5.80;99.90;;;;;;5051539;28;20040;-85
2023/01/09 02:13:05;;;;;;;2.75;1.20;;;5.80;99.90;;;;;;5053394;28;20025;-84
2023/01/09 02:15:54;;;;;;;1.60;0.95;;;5.70;99.90;;;;;;5056136;28;20479;-83
2023/01/09 02:18:42;;;;;;;1.73;0.90;;;5.80;99.90;;;;;;5055888;28;20036;-83
2023/01/09 02:21:29;;;;;;;1.95;0.80;;;5.70;99.90;;;;;;5055996;28;20025;-83
2023/01/09 02:24:24;;;;;;;2.38;1.10;;;5.70;99.90;;;;;;5055814;28;20029;-83
2023/01/09 02:27:22;;;;;;;2.55;0.90;;;5.60;99.90;;;;;;5055840;28;20413;-83
2023/01/09 02:30:28;;;;;;;1.17;0.70;;;5.60;99.90;;;;;;5055769;28;20104;-83
2023/01/09 02:33:00;;;;;;;1.98;0.85;;;5.60;99.90;;;;;;5037932;28;20013;-84
2023/01/09 02:35:41;;;;;;;2.95;1.10;;;5.50;99.90;;;;;;5055624;28;20036;-84
2023/01/09 02:38:26;;;;;;;2.20;1.02;;;5.60;99.90;;;;;;5055520;28;20037;-84
2023/01/09 02:41:13;;;;;;;2.53;0.90;;;5.60;99.90;;;;;;5055762;28;20071;-85
2023/01/09 02:43:40;;;;;;;3.42;0.98;;;5.60;99.90;;;;;;5055495;28;20037;-83
2023/01/09 02:46:11;;;;;;;2.92;0.90;;;5.50;99.90;;;;;;5055491;28;20024;-84
2023/01/09 02:48:44;;;;;;;2.40;1.08;;;5.50;99.90;;;;;;5055319;28;20024;-83
2023/01/09 02:51:37;;;;;;;1.95;0.80;;;5.50;99.90;;;;;;5055621;28;20028;-84
2023/01/09 02:54:15;;;;;;;2.42;1.15;;;5.50;99.90;;;;;;5055408;28;20027;-83
2023/01/09 02:56:47;;;;;;;1.83;0.93;;;5.50;99.90;;;;;;5037332;28;20025;-83
2023/01/09 02:59:22;;;;;;;2.88;1.00;;;5.60;99.90;;;;;;5055303;28;20017;-83
2023/01/09 03:02:02;;;;;;;3.15;1.45;;;5.60;99.90;;;;;;5037227;28;20116;-84
2023/01/09 03:05:10;;;;;;;3.08;1.10;;;5.60;99.90;;;;;;5055051;28;20090;-83
2023/01/09 03:07:59;;;;;;;2.63;1.40;;;5.50;99.90;;;;;;5033541;28;20090;-84
2023/01/09 03:10:38;;;;;;;2.40;1.20;;;5.50;99.90;;;;;;5054891;28;20061;-83
2023/01/09 03:13:05;;;;;;;5.22;1.30;;;5.50;99.90;;;;;;5037075;28;20071;-83
2023/01/09 03:15:35;;;;;;;2.75;1.40;;;5.50;99.90;;;;;;5055034;28;20025;-83
2023/01/09 03:18:04;;;;;;;4.22;1.55;;;5.50;99.90;;;;;;5037010;28;20459;-83
2023/01/09 03:20:31;;;;;;;4.57;1.42;;;5.40;99.90;;;;;;5054902;28;20429;-83
2023/01/09 03:23:03;;;;;;;4.88;1.38;;;5.40;99.90;;;;;;5054049;28;20040;-83
2023/01/09 03:25:30;;;;;;;4.28;1.60;;;5.40;99.90;;;;;;5054200;28;20017;-84
2023/01/09 03:28:05;;;;;;;3.70;1.40;;;5.30;99.90;;;;;;5054684;28;20024;-83
2023/01/09 03:30:32;;;;;;;4.90;1.60;;;5.30;99.90;;;;;;5054776;28;20033;-84
2023/01/09 03:32:58;;;;;;;3.55;1.23;;;5.30;99.90;;;;;;5054588;28;20057;-83
2023/01/09 03:35:25;;;;;;;3.22;1.58;;;5.30;99.90;;;;;;5054586;28;20025;-84
2023/01/09 03:37:50;;;;;;;3.17;1.48;;;5.20;99.90;;;;;;5036431;28;20091;-83
2023/01/09 03:40:20;;;;;;;5.05;1.92;;;5.30;99.90;;;;;;5054213;28;20064;-83
2023/01/09 03:42:46;;;;;;;3.83;1.42;;;5.20;99.90;;;;;;5054269;28;20037;-84
2023/01/09 03:45:12;;;;;;;4.75;1.50;;;5.20;99.90;;;;;;5054361;28;20017;-83
2023/01/09 03:47:38;;;;;;;3.33;1.40;;;5.20;99.90;;;;;;5054319;28;20025;-83
2023/01/09 03:50:05;;;;;;;5.22;1.58;;;5.20;99.90;;;;;;5054320;28;20104;-83
2023/01/09 03:52:30;;;;;;;6.45;2.05;;;5.20;99.90;;;;;;5054197;28;20422;-84
2023/01/09 03:54:56;;;;;;;4.43;1.35;;;5.10;99.90;;;;;;5054248;28;20154;-83
2023/01/09 03:57:23;;;;;;;7.38;1.85;;;5.20;99.90;;;;;;5054070;28;20024;-83
2023/01/09 03:59:48;;;;;;;5.85;1.63;;;5.20;99.90;;;;;;5054102;28;20455;-84
2023/01/09 04:02:14;;;;;;;3.47;1.67;;;5.10;99.90;;;;;;5035971;28;20040;-84
2023/01/09 04:04:39;;;;;;;6.82;2.00;;;5.10;99.90;;;;;;5036185;28;20469;-83
2023/01/09 04:07:05;;;;;;;3.80;1.73;;;5.10;99.90;;;;;;5036155;28;20420;-82
2023/01/09 04:09:31;;;;;;;5.78;1.60;;;5.10;99.90;;;;;;5053944;28;20036;-84
2023/01/09 04:11:56;;;;;;;4.38;1.60;;;5.20;99.90;;;;;;5053975;28;20025;-84
2023/01/09 04:14:22;;;;;;;4.47;1.52;;;5.10;99.90;;;;;;5053237;28;20478;-83
2023/01/09 04:16:47;;;;;;;4.45;1.40;;;5.10;99.90;;;;;;5035697;28;20025;-83
2023/01/09 04:19:13;;;;;;;3.55;1.50;;;5.10;99.90;;;;;;5035988;28;20024;-82
2023/01/09 04:21:38;;;;;;;4.40;1.75;;;5.10;99.90;;;;;;5053704;28;20050;-83
2023/01/09 04:24:04;;;;;;;4.95;2.13;;;5.10;99.90;;;;;;5035634;28;20127;-83
2023/01/09 04:26:30;;;;;;;7.03;1.65;;;5.10;99.90;;;;;;5035792;28;20040;-83
2023/01/09 04:28:56;;;;;;;6.65;1.85;;;5.10;99.90;;;;;;5035631;28;20036;-83
2023/01/09 04:31:21;;;;;;;6.03;1.83;;;5.10;99.90;;;;;;5053520;28;20021;-83
2023/01/09 04:33:47;;;;;;;4.53;1.77;;;5.10;99.90;;;;;;5035492;28;20036;-83
2023/01/09 04:36:12;;;;;;;8.98;2.65;;;5.10;99.90;;;;;;5052813;28;20048;-84
2023/01/09 04:38:38;;;;;;;6.25;2.30;;;5.10;99.90;;;;;;5053894;28;20036;-83
2023/01/09 04:41:04;;;;;;;5.53;2.00;;;5.10;99.90;;;;;;5053396;28;20021;-83
2023/01/09 04:43:29;;;;;;;6.10;2.22;;;5.10;99.90;;;;;;5053093;28;20615;-83
2023/01/09 04:45:55;;;;;;;7.55;3.38;;;5.20;99.90;;;;;;5035501;28;20505;-83
2023/01/09 04:48:21;;;;;;;9.75;2.45;;;5.10;99.90;;;;;;5035238;28;20063;-84
2023/01/09 04:50:46;;;;;;;5.43;2.38;;;5.20;99.90;;;;;;5035183;28;20486;-84
2023/01/09 04:53:12;;;;;;;6.32;2.05;;;5.30;99.90;;;;;;5035314;28;20070;-82
2023/01/09 04:55:37;;;;;;;7.07;2.70;;;5.30;99.90;;;;;;5053070;28;20430;-83
2023/01/09 04:58:03;;;;;;;7.15;2.80;;;5.30;99.90;;;;;;5035113;28;20035;-82
2023/01/09 05:00:29;;;;;;;8.40;2.75;;;5.40;99.90;;;;;;5051883;28;20036;-83
2023/01/09 05:02:55;;;;;;;7.20;2.88;;;5.40;99.90;;;;;;5034911;28;20376;-82
2023/01/09 05:05:21;;;;;;;8.00;2.85;;;5.50;99.90;;;;;;5035030;28;20032;-82
2023/01/09 05:07:46;;;;;;;9.75;2.90;;;5.50;99.90;;;;;;5035007;28;20029;-83
2023/01/09 05:10:12;;;;;;;5.00;2.47;;;5.50;99.90;;;;;;5052737;28;20096;-83
2023/01/09 05:12:38;;;;;;;6.20;2.85;;;5.50;99.90;;;;;;5034730;28;20028;-82
2023/01/09 05:15:05;;;;;;;6.07;2.45;;;5.60;99.90;;;;;;5034775;28;20021;-82
2023/01/09 05:17:31;;;;;;;8.20;2.40;;;5.60;99.90;;;;;;5052730;28;20052;-83
2023/01/09 05:19:56;;;;;;;5.63;2.58;;;5.60;99.90;;;;;;5052304;28;20059;-84
2023/01/09 05:22:22;;;;;;;5.38;2.38;;;5.60;99.90;;;;;;5052502;28;20502;-82
2023/01/09 05:24:47;;;;;;;7.70;3.00;;;5.50;99.90;;;;;;5034765;28;20032;-83
2023/01/09 05:27:13;;;;;;;4.25;2.00;;;5.50;99.90;;;;;;5034543;28;20060;-83
2023/01/09 05:29:39;;;;;;;4.95;2.40;;;5.50;99.90;;;;;;5052403;28;20108;-83
2023/01/09 05:32:04;;;;;;;7.32;2.55;;;5.50;99.90;;;;;;5052401;28;20032;-82
2023/01/09 05:34:30;;;;;;;5.82;2.03;;;5.60;99.90;;;;;;5034535;28;20029;-82
2023/01/09 05:36:55;;;;;;;6.75;2.17;;;5.60;99.90;;;;;;5052055;28;20096;-82
2023/01/09 05:39:21;;;;;;;4.68;1.77;;;5.60;99.90;;;;;;5034502;28;20066;-82
2023/01/09 05:41:47;;;;;;;5.80;1.77;;;5.60;99.90;;;;;;5052272;28;20028;-84
2023/01/09 05:44:12;;;;;;;6.85;2.00;;;5.60;99.90;;;;;;5034308;28;20479;-83
2023/01/09 05:46:38;;;;;;;5.70;1.85;;;5.60;99.90;;;;;;5033775;28;20062;-83
2023/01/09 05:49:03;;;;;;;7.22;2.22;;;5.60;99.90;;;;;;5051671;28;20029;-83
2023/01/09 05:51:30;;;;;;;6.80;2.30;;;5.60;99.90;;;;;;5050437;28;20044;-83
2023/01/09 05:53:56;;;;;;;4.70;2.17;;;5.60;99.90;;;;;;5051160;28;20021;-83
2023/01/09 05:56:22;;;;;;;7.63;2.30;;;5.50;99.90;;;;;;5051032;28;20487;-83
2023/01/09 05:58:48;;;;;;;4.80;1.73;;;5.60;99.90;;;;;;5033139;28;20062;-83
2023/01/09 06:01:13;;;;;;;6.40;2.20;;;5.60;99.90;;;;;;5033202;28;20025;-83
2023/01/09 06:03:39;;;;;;;9.02;2.30;;;5.50;99.90;;;;;;5031673;28;20037;-83
2023/01/09 06:06:05;;;;;;;7.63;2.08;;;5.50;99.90;;;;;;5031719;28;20129;-83
2023/01/09 06:08:30;;;;;;;6.95;1.90;;;5.60;99.90;;;;;;5031134;28;20025;-84
2023/01/09 06:10:56;;;;;;;10.23;3.00;;;5.70;99.90;;;;;;5031016;28;20068;-83
2023/01/09 06:13:21;;;;;;;4.03;1.52;;;5.70;99.90;;;;;;5049127;28;20029;-84
2023/01/09 06:15:47;;;;;;;6.28;1.80;;;5.80;99.90;;;;;;5031786;28;20111;-83
2023/01/09 06:18:13;;;;;;;5.93;1.85;;;5.80;99.90;;;;;;5031291;28;20533;-84
2023/01/09 06:20:38;;;;;;;8.27;2.40;;;5.80;99.90;;;;;;5048356;28;20029;-84
2023/01/09 06:23:04;;;;;;;13.52;3.15;;;5.80;99.90;;;;;;5031069;28;20041;-83
2023/01/09 06:25:29;;;;;;;6.95;1.70;;;5.90;99.90;;;;;;5031110;28;20052;-83
2023/01/09 06:27:55;;;;;;;5.18;1.75;;;5.90;99.90;;;;;;5048884;28;20250;-84
2023/01/09 06:30:21;;;;;;;7.32;1.67;;;6.00;99.90;;;;;;5048876;28;20430;-82
2023/01/09 06:32:48;;;;;;;6.90;1.88;;;6.00;99.90;;;;;;5048512;28;20372;-83
2023/01/09 06:35:14;;;;;;;6.07;1.85;;;6.10;99.90;;;;;;5030340;28;20464;-84
2023/01/09 06:37:39;;;;;;;10.30;2.03;;;6.10;99.90;;;;;;5030893;28;20115;-83
2023/01/09 06:40:06;;;;;;;9.93;3.00;;;6.20;99.90;;;;;;5048943;28;20114;-83
2023/01/09 06:42:31;;;;;;;12.02;1.85;;;6.20;99.90;;;;;;5048782;28;20041;-84
2023/01/09 06:44:57;;;;;;;5.20;1.65;;;6.30;99.90;;;;;;5030661;28;20044;-84
2023/01/09 06:47:22;;;;;;;7.68;2.05;;;6.30;99.90;;;;;;5030989;28;20029;-83
2023/01/09 06:49:48;;;;;;;5.95;2.28;;;6.30;99.90;;;;;;5030933;28;20123;-85
2023/01/09 06:52:13;;;;;;;9.40;1.95;;;6.20;99.90;;;;;;5050945;28;20033;-84
2023/01/09 06:54:39;;;;;;;5.95;1.33;;;6.20;99.90;;;;;;5042134;28;20021;-84
2023/01/09 06:57:04;;;;;;;10.00;1.73;;;6.20;99.90;;;;;;5059559;28;20433;-83
2023/01/09 06:59:30;;;;;;;4.82;1.42;;;6.20;99.90;;;;;;5036639;28;20029;-83
2023/01/09 07:01:56;;;;;;;6.90;2.13;;;6.20;99.90;;;;;;5071597;28;20524;-83
2023/01/09 07:04:22;;;;;;;7.47;1.80;;;6.20;99.90;;;;;;5057256;28;20060;-84
2023/01/09 07:06:47;;;;;;;7.32;1.88;;;6.20;99.90;;;;;;5063657;28;20067;-83
2023/01/09 07:09:13;;;;;;;7.72;1.75;;;6.30;99.90;;;;;;5037406;28;20029;-84
2023/01/09 07:11:40;;;;;;;5.80;1.52;;;6.30;99.90;;;;;;5036775;28;20486;-84
2023/01/09 07:14:06;;;;;;;11.55;2.25;;;6.30;99.90;;;;;;5052883;28;20031;-83
2023/01/09 07:16:32;;;;;;;8.15;1.90;;;6.30;99.90;;;;;;5039150;28;20033;-84
2023/01/09 07:18:58;;;;;;;6.18;1.35;;;6.30;99.90;;;;;;5036541;28;20021;-84
2023/01/09 07:21:24;;;;;;;5.57;1.45;;;6.30;99.90;;;;;;5036336;28;20032;-81
2023/01/09 07:23:49;;;;;;;7.43;1.60;;;6.30;99.90;;;;;;5054141;28;20033;-84
2023/01/09 07:26:15;;;;;;;7.18;1.67;;;6.30;99.90;;;;;;5053419;28;20025;-83
2023/01/09 07:28:41;;;;;;;5.63;1.70;;;6.30;99.90;;;;;;5050733;28;20046;-84
2023/01/09 07:31:06;;;;;;;8.57;1.73;;;6.30;99.90;;;;;;5036502;28;20063;-83
2023/01/09 07:33:33;;;;;;;6.90;1.60;;;6.30;99.90;;;;;;5035996;28;20024;-83
2023/01/09 07:35:59;;;;;;;7.78;1.60;;;6.20;99.90;;;;;;5035835;28;20475;-83
2023/01/09 07:38:25;;;;;;;9.02;2.45;;;6.30;99.90;;;;;;5053862;28;20029;-83
2023/01/09 07:40:50;;;;;;;9.27;2.10;;;6.30;99.90;;;;;;5035952;28;20075;-83
2023/01/09 07:43:16;;;;;;;7.00;1.90;;;6.30;99.90;;;;;;5053773;28;20045;-83
2023/01/09 07:45:42;;;;;;;8.10;1.83;;;6.30;99.90;;;;;;5035870;28;20475;-83
2023/01/09 07:48:07;;;;;;;7.82;2.08;;;6.20;99.90;;;;;;5035559;28;20112;-82
2023/01/09 07:50:33;;;;;;;12.13;2.53;;;6.20;99.90;;;;;;5053434;28;20398;-83
2023/01/09 07:52:58;;;;;;;11.68;2.65;;;6.30;99.90;;;;;;5053694;28;20029;-83
2023/01/09 07:55:24;;;;;;;6.72;2.33;;;6.30;99.90;;;;;;5053920;28;20342;-80
2023/01/09 07:57:50;;;;;;;7.35;1.98;;;6.30;99.90;;;;;;5034733;28;20025;-83
2023/01/09 08:00:17;;;;;;;4.38;1.70;;;6.30;99.90;;;;;;5035660;28;20017;-84
2023/01/09 08:02:43;;;;;;;9.07;2.30;;;6.30;99.90;;;;;;5053191;28;20043;-82
2023/01/09 08:05:13;;;;;;;7.70;2.20;;;6.30;99.90;;;;;;5035003;28;20017;-83
2023/01/09 08:07:39;;;;;;;8.05;2.30;;;6.30;99.90;;;;;;5037484;28;20382;-82
2023/01/09 08:10:05;;;;;;;7.43;2.35;;;6.30;99.90;;;;;;5035465;28;20032;-84
2023/01/09 08:12:31;;;;;;;5.10;2.15;;;6.30;99.90;;;;;;5035293;28;20021;-83
2023/01/09 08:14:56;;;;;;;7.47;2.55;;;6.30;99.90;;;;;;5053057;28;20021;-84
2023/01/09 08:17:22;;;;;;;6.35;2.65;;;6.30;99.90;;;;;;5052935;28;20480;-84
2023/01/09 08:19:47;;;;;;;8.90;2.90;;;6.30;99.90;;;;;;5052617;28;20025;-83
2023/01/09 08:22:13;;;;;;;10.55;3.45;;;6.40;99.90;;;;;;5052681;28;20028;-83
2023/01/09 08:24:39;;;;;;;6.45;2.90;;;6.30;99.90;;;;;;5058163;28;20107;-82
2023/01/09 08:27:04;;;;;;;6.05;3.25;;;6.30;99.90;;;;;;5061863;28;20078;-82
2023/01/09 08:29:30;;;;;;;7.15;3.25;;;6.30;99.90;;;;;;5052523;28;20028;-83
2023/01/09 08:31:55;;;;;;;8.90;3.70;;;6.30;99.90;;;;;;5034712;28;20483;-82
2023/01/09 08:34:21;;;;;;;10.27;3.50;;;6.30;99.90;;;;;;5052424;28;20451;-82
2023/01/09 08:36:47;;;;;;;6.35;3.70;;;6.30;99.90;;;;;;5052172;28;20490;-81
2023/01/09 08:39:13;;;;;;;7.68;3.22;;;6.30;99.90;;;;;;5052380;28;20032;-81
2023/01/09 08:47:07;;;;;;;7.85;4.10;;;6.30;99.90;;;;;;5052694;28;20044;-82
2023/01/09 08:49:36;;;;;;;9.73;4.05;;;6.30;99.90;;;;;;5051952;28;20028;-83
2023/01/09 08:52:03;;;;;;;10.30;4.28;;;6.30;99.90;;;;;;5033945;28;20025;-82
2023/01/09 08:54:29;;;;;;;6.63;4.07;;;6.30;99.90;;;;;;5052077;28;20090;-83
2023/01/09 08:56:55;;;;;;;7.15;4.30;;;6.30;99.90;;;;;;5052511;28;20025;-82
2023/01/09 08:59:20;;;;;;;8.25;3.70;;;6.30;99.90;;;;;;5034447;28;20032;-83
2023/01/09 09:01:46;;;;;;;8.13;4.45;;;6.40;99.90;;;;;;5034264;28;20029;-84
2023/01/09 09:04:12;;;;;;;9.40;4.65;;;6.40;99.90;;;;;;5052186;28;20086;-84
2023/01/09 09:06:37;;;;;;;8.57;4.50;;;6.40;99.90;;;;;;5034417;28;20467;-83
2023/01/09 09:09:04;;;;;;;8.88;4.07;;;6.50;99.90;;;;;;5034228;28;20033;-83
2023/01/09 09:11:30;;;;;;;5.75;3.85;;;6.50;99.90;;;;;;5033945;28;20497;-82
2023/01/09 09:13:56;;;;;;;9.25;4.80;;;6.50;99.90;;;;;;5034282;28;20028;-82
2023/01/09 09:16:22;;;;;;;8.68;5.60;;;6.50;99.90;;;;;;5051934;28;20024;-82
2023/01/09 09:18:48;;;;;;;8.93;4.68;;;6.50;99.90;;;;;;5051982;28;20025;-82
2023/01/09 09:21:13;;;;;;;7.65;4.80;;;6.50;99.90;;;;;;5051746;28;20044;-83
2023/01/09 09:23:39;;;;;;;8.05;5.20;;;6.50;99.90;;;;;;5051492;28;20032;-82
2023/01/09 09:26:05;;;;;;;10.20;4.68;;;6.50;99.90;;;;;;5033749;28;20025;-83
2023/01/09 09:28:30;;;;;;;9.18;4.97;;;6.60;99.90;;;;;;5051535;28;20025;-82
2023/01/09 09:30:56;;;;;;;9.70;5.55;;;6.60;99.90;;;;;;5033599;28;20025;-83
2023/01/09 09:33:22;;;;;;;9.77;5.30;;;6.70;99.90;;;;;;5017343;28;20479;-83
2023/01/09 09:35:48;;;;;;;8.60;5.25;;;6.70;99.90;;;;;;5033819;28;20021;-81
2023/01/09 09:38:17;;;;;;;8.98;5.40;;;6.70;99.90;;;;;;5017112;28;20525;-84
2023/01/09 09:44:42;;;;;;;8.75;4.45;;;6.70;99.90;;;;;;5021299;28;20048;-84
2023/01/09 09:47:46;;;;;;;7.22;3.45;;;6.70;99.90;;;;;;5033576;28;20036;-83
2023/01/09 09:50:15;;;;;;;6.13;3.63;;;6.70;99.90;;;;;;5017079;28;20013;-83
2023/01/09 09:53:35;;;;;;;6.38;3.60;;;6.70;99.90;;;;;;5051419;28;20070;-83
2023/01/09 09:56:03;;;;;;;7.97;3.75;;;6.70;99.90;;;;;;4934880;29;20037;-82
2023/01/09 09:58:38;;;;;;;8.25;3.50;;;6.70;99.90;;;;;;5003818;28;20025;-82
2023/01/09 10:01:07;;;;;;;9.13;3.97;;;6.70;99.90;;;;;;5051281;28;20025;-83
2023/01/09 10:03:44;;;;;;;10.80;3.67;;;6.70;99.90;;;;;;5016927;28;20048;-83
2023/01/09 10:06:29;;;;;;;9.75;3.80;;;6.80;99.90;;;;;;5021759;28;20017;-83
2023/01/09 10:09:32;;;;;;;8.50;3.53;;;6.80;99.90;;;;;;5036303;28;20040;-83
2023/01/09 10:12:10;;;;;;;10.57;4.15;;;6.80;99.90;;;;;;5033307;28;20032;-83
2023/01/09 10:14:36;;;;;;;7.63;4.70;;;6.80;99.90;;;;;;5051214;28;20472;-83
2023/01/09 10:18:03;;;;;;;12.68;5.60;;;6.90;99.90;;;;;;5032058;28;20039;-82
2023/01/09 10:20:34;;;;;;;8.85;5.20;;;6.90;99.90;;;;;;4967609;28;20183;-82
2023/01/09 10:23:24;;;;;;;9.40;5.90;;;7.10;99.90;;;;;;4969981;28;20043;-83
2023/01/09 10:26:11;;;;;;;8.90;5.80;;;7.20;99.90;;;;;;5035728;28;20033;-82
2023/01/09 10:29:15;;;;;;;18.90;7.20;;;7.30;99.90;;;;;;5033267;28;20021;-82
2023/01/09 10:31:50;;;;;;;10.80;6.43;;;7.30;99.90;;;;;;4999634;28;20547;-82
2023/01/09 10:34:37;;;;;;;12.85;5.95;;;7.30;99.90;;;;;;5037858;28;20019;-82
2023/01/09 10:37:12;;;;;;;12.60;5.43;;;7.20;99.90;;;;;;5054684;28;20053;-83
2023/01/09 10:39:59;;;;;;;10.35;4.85;;;7.10;99.90;;;;;;5036519;28;20051;-83
2023/01/09 10:42:50;;;;;;;5.82;3.85;;;7.10;99.90;;;;;;5040272;28;20082;-82
2023/01/09 10:45:21;;;;;;;8.75;4.35;;;7.00;99.90;;;;;;5054907;28;20048;-82
2023/01/09 10:47:47;;;;;;;8.32;4.07;;;7.00;99.90;;;;;;5054811;28;20044;-81
2023/01/09 10:50:21;;;;;;;6.53;3.92;;;7.00;99.90;;;;;;5020436;28;20013;-83
2023/01/09 10:52:48;;;;;;;;;;;7.00;99.90;;;;;;5055328;28;20025;-81
2023/01/09 10:55:35;;;;;;;9.43;3.90;;;6.90;99.90;;;;;;5036681;28;20313;-82
2023/01/09 10:58:03;;;;;;;7.40;3.75;;;6.90;99.90;;;;;;5054505;28;20029;-81
2023/01/09 11:00:29;;;;;;;10.63;4.35;;;6.90;99.90;;;;;;5054469;28;20053;-83
2023/01/09 11:02:54;;;;;;;7.47;4.40;;;7.00;99.90;;;;;;5036564;28;20083;-82
2023/01/09 11:05:29;;;;;;;8.57;5.20;;;7.10;99.90;;;;;;5036692;28;20021;-83
2023/01/09 11:08:07;;;;;;;10.18;5.40;;;7.60;99.90;;;;;;5054620;28;20075;-83
2023/01/09 11:10:46;;;;;;;13.25;6.00;;;8.50;99.90;;;;;;5017305;28;20126;-82
2023/01/09 11:13:21;;;;;;;13.88;4.55;;;8.70;99.90;;;;;;5028525;28;20044;-82
2023/01/09 11:16:09;;;;;;;9.05;4.20;;;8.60;99.90;;;;;;5054372;28;20147;-82
2023/01/09 11:18:55;;;;;;;9.48;4.10;;;9.00;99.90;;;;;;5034049;28;20053;-83
2023/01/09 11:21:27;;;;;;;7.35;4.20;;;9.00;99.90;;;;;;5033875;28;20041;-84
2023/01/09 11:23:55;;;;;;;7.07;4.05;;;8.60;99.90;;;;;;5033322;28;20033;-84
2023/01/09 11:26:25;;;;;;;8.40;4.20;;;8.30;99.90;;;;;;5051686;28;20383;-83
2023/01/09 11:29:05;;;;;;;8.77;4.07;;;8.50;99.90;;;;;;5019512;28;20112;-84
2023/01/09 11:31:32;;;;;;;9.63;4.07;;;8.70;99.90;;;;;;5043363;28;20033;-82
2023/01/09 11:33:58;;;;;;;6.50;3.63;;;9.00;99.90;;;;;;5017860;28;20033;-84
2023/01/09 11:36:34;;;;;;;6.47;3.35;;;8.80;99.90;;;;;;5034528;28;20041;-89
2023/01/09 11:39:03;;;;;;;7.07;3.03;;;8.50;99.90;;;;;;5036896;28;20087;-85
2023/01/09 11:41:33;;;;;;;6.68;3.17;;;8.20;99.90;;;;;;5033821;28;20009;-83
2023/01/09 11:44:01;;;;;;;8.45;2.92;;;8.10;99.90;;;;;;5033098;28;20083;-83
2023/01/09 11:46:42;;;;;;;6.47;3.03;;;8.00;99.90;;;;;;5054466;28;20063;-82
2023/01/09 11:49:13;;;;;;;8.02;3.22;;;8.00;99.90;;;;;;5051627;28;20040;-84
2023/01/09 11:51:40;;;;;;;8.05;3.28;;;8.00;99.90;;;;;;5033590;28;20430;-85
2023/01/09 11:54:24;;;;;;;6.85;3.20;;;8.00;99.90;;;;;;5033801;28;20112;-81
2023/01/09 11:56:50;;;;;;;6.47;3.05;;;8.00;99.90;;;;;;5031786;28;20437;-83
2023/01/09 11:59:20;;;;;;;6.97;3.28;;;8.50;99.90;;;;;;5035576;28;20052;-84
2023/01/09 12:02:04;;;;;;;6.32;2.90;;;8.90;99.90;;;;;;5053402;28;20021;-81
2023/01/09 12:05:05;;;;;;;5.05;2.97;;;9.00;99.90;;;;;;5035607;28;20029;-81
2023/01/09 12:07:46;;;;;;;6.05;2.35;;;9.00;99.90;;;;;;5035215;28;20483;-83
2023/01/09 12:10:30;;;;;;;7.20;2.33;;;8.90;99.90;;;;;;5035457;28;20083;-82
2023/01/09 12:13:02;;;;;;;7.50;1.80;;;8.90;99.90;;;;;;5035547;28;20035;-82
2023/01/09 12:15:49;;;;;;;11.10;2.15;;;8.90;99.90;;;;;;5035238;28;20025;-82
2023/01/09 12:18:33;;;;;;;8.40;2.90;;;9.00;99.90;;;;;;5035389;28;20547;-81
2023/01/09 12:21:05;;;;;;;6.15;1.80;;;9.20;99.90;;;;;;5037342;28;20019;-81
2023/01/09 12:23:54;;;;;;;6.13;2.22;;;9.20;99.90;;;;;;5034994;28;20063;-81
2023/01/09 12:26:22;;;;;;;7.53;1.92;;;9.20;99.90;;;;;;5035139;28;20017;-82
2023/01/09 12:28:50;;;;;;;8.40;2.17;;;9.20;99.90;;;;;;5053001;28;20021;-79
2023/01/09 12:31:40;;;;;;;10.02;2.80;;;9.20;99.90;;;;;;5035336;28;20419;-80
2023/01/09 12:34:10;;;;;;;9.05;2.25;;;9.10;99.90;;;;;;5034024;28;20037;-82
2023/01/09 12:36:51;;;;;;;8.18;2.60;;;8.90;99.90;;;;;;5029055;28;20136;-82
2023/01/09 12:39:47;;;;;;;11.63;3.33;;;8.80;99.90;;;;;;5028973;28;20029;-82
2023/01/09 12:42:37;;;;;;;10.52;2.80;;;8.80;99.90;;;;;;5050495;28;20016;-82
2023/01/09 12:45:11;;;;;;;9.27;2.35;;;8.70;99.90;;;;;;5041074;28;20092;-83
2023/01/09 12:47:42;;;;;;;12.30;3.35;;;8.70;99.90;;;;;;5051861;28;20492;-83
2023/01/09 12:50:14;;;;;;;13.13;2.97;;;8.70;99.90;;;;;;5034474;28;20025;-82
2023/01/09 12:52:45;;;;;;;8.95;2.78;;;8.70;99.90;;;;;;5034297;28;20029;-81
2023/01/09 12:55:19;;;;;;;13.10;3.00;;;8.70;99.90;;;;;;5039011;28;20099;-82
2023/01/09 12:57:52;;;;;;;9.35;2.55;;;8.70;99.90;;;;;;5033268;28;20174;-82
2023/01/09 13:00:39;;;;;;;11.93;2.63;;;8.70;99.90;;;;;;5051957;28;20021;-82
2023/01/09 13:03:29;;;;;;;8.20;2.40;;;8.70;99.90;;;;;;5032956;28;20112;-82
2023/01/09 13:05:56;;;;;;;6.90;2.65;;;8.60;99.90;;;;;;5033581;28;20040;-82
2023/01/09 13:08:37;;;;;;;6.45;2.67;;;8.50;99.90;;;;;;5033943;28;20017;-82
2023/01/09 13:11:19;;;;;;;8.57;2.38;;;8.50;99.90;;;;;;5052766;28;20013;-83
2023/01/09 13:13:56;;;;;;;8.60;2.55;;;8.60;99.90;;;;;;5027244;28;20009;-81
2023/01/09 13:16:27;;;;;;;9.02;2.28;;;8.60;99.90;;;;;;5028519;28;20029;-83
2023/01/09 13:19:13;;;;;;;13.43;2.80;;;8.70;99.90;;;;;;5033763;28;20417;-84
2023/01/09 13:21:39;;;;;;;6.35;2.30;;;8.70;99.90;;;;;;5032942;28;20082;-83
2023/01/09 13:24:25;;;;;;;8.52;1.92;;;8.70;99.90;;;;;;5032891;28;20033;-82
2023/01/09 13:26:58;;;;;;;9.45;2.92;;;8.70;99.90;;;;;;5050840;28;20035;-82